createdAt,value
2019-03-19T00:02:05.347Z,4.50
2019-03-19T00:04:32.859Z,3.80
2019-03-19T00:07:00.553Z,3.60
2019-03-19T00:09:27.852Z,3.60
2019-03-19T00:11:57.733Z,4.03
2019-03-19T00:14:24.238Z,3.90
2019-03-19T00:16:51.696Z,4.17
2019-03-19T00:19:19.266Z,3.67
2019-03-19T00:21:47.829Z,3.60
2019-03-19T00:24:15.647Z,4.62
2019-03-19T00:26:43.105Z,3.40
2019-03-19T00:29:12.031Z,3.47
2019-03-19T00:31:40.308Z,3.60
2019-03-19T00:34:09.974Z,3.20
2019-03-19T00:36:39.479Z,3.50
2019-03-19T00:39:07.673Z,3.30
2019-03-19T00:41:36.948Z,3.83
2019-03-19T00:44:04.822Z,3.45
2019-03-19T00:46:33.294Z,3.42
2019-03-19T00:49:01.286Z,3.83
2019-03-19T00:51:29.165Z,3.47
2019-03-19T00:53:57.076Z,3.50
2019-03-19T00:56:26.396Z,5.37
2019-03-19T00:58:54.686Z,4.47
2019-03-19T01:01:22.756Z,3.90
2019-03-19T01:03:50.194Z,4.27
2019-03-19T01:06:18.607Z,4.20
2019-03-19T01:08:45.992Z,4.33
2019-03-19T01:11:13.373Z,5.33
2019-03-19T01:13:41.093Z,3.87
2019-03-19T01:16:08.965Z,4.10
2019-03-19T01:18:37.520Z,3.83
2019-03-19T01:21:06.404Z,4.30
2019-03-19T01:23:34.307Z,3.87
2019-03-19T01:26:01.696Z,4.17
2019-03-19T01:28:31.040Z,3.47
2019-03-19T01:30:59.747Z,3.60
2019-03-19T01:33:27.299Z,3.80
2019-03-19T01:35:58.945Z,3.72
2019-03-19T01:38:26.314Z,3.60
2019-03-19T01:40:53.748Z,4.07
2019-03-19T01:43:23.834Z,3.57
2019-03-19T01:45:51.975Z,3.50
2019-03-19T01:48:18.849Z,3.65
2019-03-19T01:50:45.642Z,4.05
2019-03-19T01:53:12.469Z,3.60
2019-03-19T01:55:39.246Z,3.50
2019-03-19T01:58:06.144Z,4.30
2019-03-19T02:00:32.969Z,3.60
2019-03-19T02:02:59.805Z,3.85
2019-03-19T02:05:26.620Z,3.83
2019-03-19T02:07:53.408Z,3.90
2019-03-19T02:10:20.236Z,4.00
2019-03-19T02:12:47.097Z,3.80
2019-03-19T02:15:17.357Z,7.42
2019-03-19T02:17:44.186Z,4.20
2019-03-19T02:20:17.323Z,4.77
2019-03-19T02:22:44.098Z,4.83
2019-03-19T02:25:11.028Z,4.90
2019-03-19T02:27:37.945Z,4.80
2019-03-19T02:30:07.732Z,4.97
2019-03-19T02:32:34.553Z,4.80
2019-03-19T02:35:01.401Z,4.53
2019-03-19T02:37:28.267Z,4.15
2019-03-19T02:39:55.086Z,5.25
2019-03-19T02:42:21.910Z,4.97
2019-03-19T02:44:48.710Z,4.92
2019-03-19T02:47:15.541Z,4.50
2019-03-19T02:49:42.364Z,5.00
2019-03-19T02:52:09.149Z,6.20
2019-03-19T02:54:35.965Z,4.37
2019-03-19T02:57:02.835Z,4.33
2019-03-19T02:59:29.623Z,4.70
2019-03-19T03:01:56.445Z,4.80
2019-03-19T03:04:23.269Z,4.22
2019-03-19T03:06:50.060Z,4.55
2019-03-19T03:09:16.879Z,5.10
2019-03-19T03:11:43.873Z,4.50
2019-03-19T03:14:10.733Z,3.97
2019-03-19T03:16:37.554Z,4.00
2019-03-19T03:19:04.354Z,4.28
2019-03-19T03:21:34.493Z,3.98
2019-03-19T03:23:59.769Z,4.50
2019-03-19T03:26:26.585Z,4.08
2019-03-19T03:28:53.405Z,4.07
2019-03-19T03:31:20.216Z,4.10
2019-03-19T03:33:47.074Z,4.10
2019-03-19T03:36:13.920Z,4.47
2019-03-19T03:38:40.753Z,3.95
2019-03-19T03:41:07.662Z,4.65
2019-03-19T03:43:34.450Z,4.37
2019-03-19T03:46:01.284Z,3.45
2019-03-19T03:48:28.069Z,4.78
2019-03-19T03:50:54.901Z,4.40
2019-03-19T03:53:21.686Z,4.40
2019-03-19T03:55:48.517Z,5.42
2019-03-19T03:58:15.345Z,4.97
2019-03-19T04:00:42.136Z,6.05
2019-03-19T04:03:08.954Z,4.50
2019-03-19T04:05:35.724Z,4.80
2019-03-19T04:08:02.563Z,4.12
2019-03-19T04:10:29.395Z,4.80
2019-03-19T04:12:56.161Z,5.00
2019-03-19T04:15:23.053Z,5.10
2019-03-19T04:17:49.968Z,5.60
2019-03-19T04:20:17.876Z,5.30
2019-03-19T04:22:44.773Z,4.17
2019-03-19T04:25:12.137Z,5.58
2019-03-19T04:27:40.693Z,4.80
2019-03-19T04:30:13.926Z,6.20
2019-03-19T04:32:40.767Z,4.50
2019-03-19T04:35:07.582Z,4.30
2019-03-19T04:37:34.366Z,4.40
2019-03-19T04:40:01.199Z,3.83
2019-03-19T04:42:28.020Z,4.90
2019-03-19T04:44:54.801Z,4.20
2019-03-19T04:47:21.616Z,5.73
2019-03-19T04:49:48.401Z,4.72
2019-03-19T04:52:15.259Z,4.83
2019-03-19T04:54:42.015Z,5.12
2019-03-19T04:57:08.842Z,4.62
2019-03-19T04:59:35.630Z,4.75
2019-03-19T05:02:02.454Z,4.00
2019-03-19T05:04:29.277Z,4.30
2019-03-19T05:06:56.061Z,4.80
2019-03-19T05:09:22.893Z,4.80
2019-03-19T05:11:49.697Z,4.83
2019-03-19T05:14:16.516Z,4.70
2019-03-19T05:16:43.341Z,5.60
2019-03-19T05:19:10.121Z,5.10
2019-03-19T05:21:36.949Z,5.47
2019-03-19T05:24:03.734Z,5.55
2019-03-19T05:26:30.581Z,5.65
2019-03-19T05:28:57.414Z,5.40
2019-03-19T05:31:24.206Z,7.28
2019-03-19T05:33:51.033Z,4.78
2019-03-19T05:36:18.349Z,5.10
2019-03-19T05:38:45.754Z,5.40
2019-03-19T05:41:12.756Z,5.20
2019-03-19T05:43:40.062Z,6.73
2019-03-19T05:46:06.923Z,6.30
2019-03-19T05:48:33.855Z,6.30
2019-03-19T05:51:00.802Z,5.70
2019-03-19T05:53:27.713Z,6.05
2019-03-19T05:55:54.647Z,6.72
2019-03-19T05:58:21.485Z,6.05
2019-03-19T06:00:48.421Z,5.83
2019-03-19T06:03:15.371Z,5.37
2019-03-19T06:05:42.266Z,5.55
2019-03-19T06:08:09.178Z,6.50
2019-03-19T06:10:36.083Z,6.78
2019-03-19T06:13:03.333Z,6.87
2019-03-19T06:15:30.289Z,5.72
2019-03-19T06:17:57.148Z,6.33
2019-03-19T06:20:24.054Z,6.75
2019-03-19T06:22:50.891Z,7.05
2019-03-19T06:25:17.710Z,6.15
2019-03-19T06:27:44.517Z,6.90
2019-03-19T06:30:16.965Z,5.97
2019-03-19T06:32:43.920Z,5.97
2019-03-19T06:35:11.652Z,6.70
2019-03-19T06:37:38.681Z,7.47
2019-03-19T06:40:09.181Z,7.85
2019-03-19T06:42:35.977Z,11.48
2019-03-19T06:45:04.805Z,10.58
2019-03-19T06:47:31.585Z,9.15
2019-03-19T06:49:58.997Z,11.75
2019-03-19T06:52:25.786Z,8.00
2019-03-19T06:54:52.602Z,7.78
2019-03-19T06:57:19.433Z,7.90
2019-03-19T06:59:46.242Z,7.58
2019-03-19T07:02:13.056Z,8.43
2019-03-19T07:04:40.122Z,8.35
2019-03-19T07:07:06.970Z,8.83
2019-03-19T07:09:33.887Z,7.60
2019-03-19T07:12:01.684Z,7.77
2019-03-19T07:14:28.725Z,7.85
2019-03-19T07:16:55.510Z,7.97
2019-03-19T07:19:22.330Z,8.00
2019-03-19T07:21:49.173Z,8.30
2019-03-19T07:24:16.029Z,8.17
2019-03-19T07:26:42.858Z,9.60
2019-03-19T07:29:09.689Z,8.78
2019-03-19T07:31:36.505Z,8.90
2019-03-19T07:34:03.294Z,8.68
2019-03-19T07:36:30.133Z,8.73
2019-03-19T07:38:57.016Z,9.60
2019-03-19T07:41:23.823Z,8.80
2019-03-19T07:43:50.631Z,8.18
2019-03-19T07:46:17.408Z,7.90
2019-03-19T07:48:44.197Z,7.33
2019-03-19T07:51:11.021Z,8.75
2019-03-19T07:53:37.861Z,7.45
2019-03-19T07:56:04.632Z,8.28
2019-03-19T07:58:44.303Z,7.75
2019-03-19T08:01:00.054Z,6.03
2019-03-19T08:03:26.877Z,7.28
2019-03-19T08:05:53.698Z,7.67
2019-03-19T08:08:20.477Z,7.80
2019-03-19T08:10:47.306Z,8.08
2019-03-19T08:13:14.088Z,8.50
2019-03-19T08:15:40.914Z,8.18
2019-03-19T08:18:07.689Z,8.73
2019-03-19T08:20:36.069Z,9.20
2019-03-19T08:23:02.998Z,8.88
2019-03-19T08:25:29.773Z,7.78
2019-03-19T08:27:56.593Z,8.53
2019-03-19T08:30:26.662Z,8.63
2019-03-19T08:32:53.472Z,8.28
2019-03-19T08:35:20.366Z,8.90
2019-03-19T08:37:47.185Z,7.85
2019-03-19T08:40:17.536Z,9.60
2019-03-19T08:42:44.352Z,9.40
2019-03-19T08:45:25.320Z,9.50
2019-03-19T08:47:52.142Z,9.48
2019-03-19T08:50:20.016Z,10.72
2019-03-19T08:52:46.838Z,9.50
2019-03-19T08:55:13.662Z,10.30
2019-03-19T08:57:40.452Z,9.78
2019-03-19T09:00:18.571Z,10.55
2019-03-19T09:02:45.363Z,8.90
2019-03-19T09:05:12.672Z,9.85
2019-03-19T09:07:39.503Z,9.78
2019-03-19T09:10:11.905Z,13.20
2019-03-19T09:12:38.726Z,9.35
2019-03-19T09:15:14.341Z,9.08
2019-03-19T09:17:41.161Z,9.70
2019-03-19T09:20:10.853Z,8.93
2019-03-19T09:22:38.379Z,9.10
2019-03-19T09:25:06.566Z,8.98
2019-03-19T09:27:33.391Z,8.60
2019-03-19T09:30:00.209Z,8.00
2019-03-19T09:32:27.096Z,8.20
2019-03-19T09:34:53.853Z,7.83
2019-03-19T09:37:20.637Z,7.97
2019-03-19T09:39:47.455Z,9.25
2019-03-19T09:42:14.250Z,9.08
2019-03-19T09:44:41.037Z,7.53
2019-03-19T09:47:07.867Z,6.87
2019-03-19T09:49:34.649Z,5.92
2019-03-19T09:52:01.457Z,5.80
2019-03-19T09:54:28.245Z,6.05
2019-03-19T09:56:55.056Z,6.60
2019-03-19T09:59:27.082Z,8.33
2019-03-19T10:01:50.460Z,5.25
2019-03-19T10:04:17.273Z,6.08
2019-03-19T10:06:44.070Z,7.05
2019-03-19T10:09:10.896Z,4.93
2019-03-19T10:11:37.713Z,3.83
2019-03-19T10:14:04.497Z,6.58
2019-03-19T10:16:31.328Z,6.20
2019-03-19T10:18:58.113Z,5.80
2019-03-19T10:21:25.873Z,5.17
2019-03-19T10:23:52.657Z,5.33
2019-03-19T10:26:19.503Z,5.70
2019-03-19T10:28:46.277Z,6.57
2019-03-19T10:31:13.133Z,5.35
2019-03-19T10:33:39.912Z,7.55
2019-03-19T10:36:06.797Z,5.33
2019-03-19T10:38:33.609Z,7.15
2019-03-19T10:41:00.715Z,6.25
2019-03-19T10:43:27.511Z,5.57
2019-03-19T10:45:54.300Z,7.28
2019-03-19T10:48:21.122Z,7.10
2019-03-19T10:50:48.488Z,5.55
2019-03-19T10:53:15.273Z,5.75
2019-03-19T10:55:42.087Z,5.20
2019-03-19T10:58:11.346Z,6.60
2019-03-19T11:00:37.510Z,4.42
2019-03-19T11:03:04.289Z,4.65
2019-03-19T11:05:31.074Z,4.53
2019-03-19T11:07:57.905Z,3.47
2019-03-19T11:10:24.717Z,4.95
2019-03-19T11:12:51.496Z,5.20
2019-03-19T11:15:19.417Z,4.33
2019-03-19T11:17:46.298Z,6.30
2019-03-19T11:20:15.319Z,5.33
2019-03-19T11:22:42.096Z,5.33
2019-03-19T11:25:11.513Z,4.60
2019-03-19T11:27:38.332Z,4.78
2019-03-19T11:30:14.273Z,4.03
2019-03-19T11:32:41.132Z,3.30
2019-03-19T11:35:09.116Z,3.55
2019-03-19T11:37:35.932Z,4.25
2019-03-19T11:40:05.934Z,4.30
2019-03-19T11:42:32.743Z,5.83
2019-03-19T11:44:59.630Z,6.10
2019-03-19T11:47:26.577Z,3.70
2019-03-19T11:49:53.519Z,3.47
2019-03-19T11:52:20.463Z,7.05
2019-03-19T11:54:47.408Z,5.90
2019-03-19T11:57:15.375Z,5.35
2019-03-19T11:59:42.319Z,5.95
2019-03-19T12:02:09.161Z,5.45
2019-03-19T12:04:36.106Z,4.40
2019-03-19T12:07:03.152Z,5.35
2019-03-19T12:09:30.097Z,4.10
2019-03-19T12:11:57.041Z,6.53
2019-03-19T12:14:24.088Z,5.78
2019-03-19T12:16:51.039Z,9.15
2019-03-19T12:19:17.976Z,6.03
2019-03-19T12:21:44.920Z,5.75
2019-03-19T12:24:11.866Z,5.37
2019-03-19T12:26:38.911Z,6.10
2019-03-19T12:29:05.856Z,7.42
2019-03-19T12:31:32.811Z,5.40
2019-03-19T12:33:59.747Z,9.53
2019-03-19T12:36:26.688Z,4.90
2019-03-19T12:38:53.633Z,5.83
2019-03-19T12:41:20.576Z,5.40
2019-03-19T12:43:47.419Z,4.17
2019-03-19T12:46:14.363Z,7.17
2019-03-19T12:48:41.307Z,5.87
2019-03-19T12:51:08.252Z,4.65
2019-03-19T12:53:35.197Z,6.40
2019-03-19T12:56:02.015Z,5.20
2019-03-19T12:58:28.852Z,7.50
2019-03-19T13:00:55.702Z,6.08
2019-03-19T13:03:22.557Z,6.47
2019-03-19T13:05:49.336Z,6.25
2019-03-19T13:08:16.166Z,8.43
2019-03-19T13:10:42.965Z,4.22
2019-03-19T13:13:09.774Z,4.57
2019-03-19T13:15:36.553Z,8.40
2019-03-19T13:18:03.583Z,5.35
2019-03-19T13:20:31.469Z,4.17
2019-03-19T13:22:58.250Z,4.78
2019-03-19T13:25:25.516Z,5.78
2019-03-19T13:27:52.301Z,4.80
2019-03-19T13:30:23.622Z,3.92
2019-03-19T13:32:50.449Z,3.80
2019-03-19T13:35:17.233Z,5.70
2019-03-19T13:37:44.063Z,4.55
2019-03-19T13:40:13.661Z,5.10
2019-03-19T13:42:40.489Z,4.63
2019-03-19T13:45:14.304Z,3.75
2019-03-19T13:47:41.138Z,4.92
2019-03-19T13:50:10.270Z,4.95
2019-03-19T13:52:37.061Z,4.17
2019-03-19T13:55:10.004Z,3.95
2019-03-19T13:57:36.792Z,4.60
2019-03-19T14:00:07.106Z,5.10
2019-03-19T14:02:33.896Z,2.83
2019-03-19T14:05:00.788Z,3.58
2019-03-19T14:07:27.660Z,5.35
2019-03-19T14:09:54.452Z,7.80
2019-03-19T14:12:21.285Z,5.45
2019-03-19T14:14:48.068Z,5.05
2019-03-19T14:17:14.905Z,4.22
2019-03-19T14:19:41.682Z,6.50
2019-03-19T14:22:08.505Z,5.05
2019-03-19T14:24:35.793Z,4.43
2019-03-19T14:27:02.650Z,5.30
2019-03-19T14:29:29.434Z,5.05
2019-03-19T14:31:56.220Z,5.95
2019-03-19T14:34:23.047Z,4.10
2019-03-19T14:36:49.879Z,3.25
2019-03-19T14:39:16.662Z,5.45
2019-03-19T14:41:45.554Z,7.03
2019-03-19T14:44:12.102Z,5.22
2019-03-19T14:46:38.929Z,4.83
2019-03-19T14:49:05.716Z,4.70
2019-03-19T14:51:32.543Z,5.55
2019-03-19T14:53:59.369Z,6.35
2019-03-19T14:56:26.166Z,5.10
2019-03-19T14:58:52.985Z,7.00
2019-03-19T15:01:19.961Z,4.10
2019-03-19T15:03:46.893Z,5.15
2019-03-19T15:06:13.718Z,5.78
2019-03-19T15:08:40.506Z,5.20
2019-03-19T15:11:07.338Z,7.65
2019-03-19T15:13:34.120Z,5.25
2019-03-19T15:16:00.950Z,3.75
2019-03-19T15:18:27.783Z,3.87
2019-03-19T15:20:54.570Z,10.07
2019-03-19T15:23:21.398Z,5.25
2019-03-19T15:25:48.178Z,4.97
2019-03-19T15:28:15.041Z,4.78
2019-03-19T15:30:41.842Z,8.48
2019-03-19T15:33:08.665Z,3.70
2019-03-19T15:35:35.470Z,4.67
2019-03-19T15:38:02.281Z,5.00
2019-03-19T15:40:29.076Z,4.05
2019-03-19T15:42:55.917Z,5.40
2019-03-19T15:45:28.710Z,7.05
2019-03-19T15:47:55.532Z,5.28
2019-03-19T15:50:22.374Z,5.95
2019-03-19T15:52:49.182Z,5.60
2019-03-19T15:55:16.006Z,6.80
2019-03-19T15:57:43.025Z,6.85
2019-03-19T16:00:14.558Z,5.40
2019-03-19T16:02:41.377Z,4.80
2019-03-19T16:05:10.066Z,4.92
2019-03-19T16:07:36.892Z,5.30
2019-03-19T16:10:06.180Z,3.98
2019-03-19T16:12:33.059Z,3.67
2019-03-19T16:14:59.824Z,5.90
2019-03-19T16:17:26.609Z,4.50
2019-03-19T16:19:53.436Z,4.25
2019-03-19T16:22:20.249Z,3.87
2019-03-19T16:24:47.085Z,5.12
2019-03-19T16:27:13.938Z,5.20
2019-03-19T16:29:40.777Z,6.10
2019-03-19T16:32:07.561Z,5.70
2019-03-19T16:34:34.390Z,7.17
2019-03-19T16:37:01.233Z,7.40
2019-03-19T16:39:28.021Z,4.17
2019-03-19T16:41:54.845Z,4.90
2019-03-19T16:44:21.632Z,7.10
2019-03-19T16:46:48.480Z,6.40
2019-03-19T16:49:15.293Z,8.35
2019-03-19T16:51:42.093Z,6.72
2019-03-19T16:54:08.929Z,7.45
2019-03-19T16:56:35.716Z,7.35
2019-03-19T16:59:02.545Z,4.40
2019-03-19T17:01:29.337Z,6.92
2019-03-19T17:03:56.157Z,5.83
2019-03-19T17:06:22.982Z,4.33
2019-03-19T17:08:49.773Z,7.90
2019-03-19T17:11:16.597Z,7.73
2019-03-19T17:13:43.385Z,5.60
2019-03-19T17:16:10.204Z,6.55
2019-03-19T17:18:36.997Z,5.80
2019-03-19T17:21:03.816Z,4.28
2019-03-19T17:23:31.550Z,4.37
2019-03-19T17:25:58.341Z,5.22
2019-03-19T17:28:25.249Z,5.30
2019-03-19T17:30:52.080Z,4.90
2019-03-19T17:33:18.868Z,3.55
2019-03-19T17:35:45.695Z,4.55
2019-03-19T17:38:12.582Z,3.30
2019-03-19T17:40:41.523Z,7.75
2019-03-19T17:43:08.044Z,8.73
2019-03-19T17:45:34.834Z,6.40
2019-03-19T17:48:01.660Z,6.47
2019-03-19T17:50:33.714Z,7.97
2019-03-19T17:53:00.536Z,11.03
2019-03-19T17:55:27.332Z,9.45
2019-03-19T17:57:54.260Z,16.50
2019-03-19T18:00:23.014Z,19.52
2019-03-19T18:02:49.881Z,25.35
2019-03-19T18:05:16.715Z,22.75
2019-03-19T18:07:46.289Z,17.52
2019-03-19T18:10:13.774Z,12.00
2019-03-19T18:12:40.762Z,9.70
2019-03-19T18:15:13.028Z,8.30
2019-03-19T18:17:39.824Z,5.45
2019-03-19T18:20:10.729Z,6.70
2019-03-19T18:22:37.518Z,8.68
2019-03-19T18:25:06.386Z,11.50
2019-03-19T18:27:33.175Z,11.80
2019-03-19T18:30:00.053Z,10.72
2019-03-19T18:32:35.118Z,10.05
2019-03-19T18:34:55.967Z,16.05
2019-03-19T18:37:22.764Z,8.80
2019-03-19T18:39:49.585Z,6.00
2019-03-19T18:42:16.377Z,12.15
2019-03-19T18:44:43.213Z,7.40
2019-03-19T18:47:12.235Z,9.28
2019-03-19T18:49:39.325Z,12.60
2019-03-19T18:52:06.282Z,11.37
2019-03-19T18:54:33.145Z,11.45
2019-03-19T18:57:00.041Z,14.35
2019-03-19T18:59:26.922Z,10.18
2019-03-19T19:01:53.762Z,6.62
2019-03-19T19:04:20.550Z,7.33
2019-03-19T19:06:47.465Z,7.25
2019-03-19T19:09:14.295Z,9.10
2019-03-19T19:11:41.097Z,15.53
2019-03-19T19:14:09.229Z,12.88
2019-03-19T19:16:36.005Z,15.40
2019-03-19T19:19:02.829Z,13.35
2019-03-19T19:21:29.649Z,11.22
2019-03-19T19:23:56.440Z,11.00
2019-03-19T19:26:23.325Z,9.75
2019-03-19T19:28:50.228Z,9.70
2019-03-19T19:31:17.083Z,8.23
2019-03-19T19:33:43.878Z,9.63
2019-03-19T19:36:10.911Z,6.67
2019-03-19T19:38:37.789Z,11.68
2019-03-19T19:41:05.097Z,8.80
2019-03-19T19:43:31.879Z,8.58
2019-03-19T19:45:58.810Z,9.20
2019-03-19T19:48:25.603Z,9.95
2019-03-19T19:50:52.390Z,8.20
2019-03-19T19:53:19.210Z,7.92
2019-03-19T19:55:45.989Z,13.85
2019-03-19T19:58:12.817Z,10.50
2019-03-19T20:00:39.646Z,9.03
2019-03-19T20:03:12.276Z,7.80
2019-03-19T20:05:35.340Z,9.10
2019-03-19T20:08:02.132Z,8.33
2019-03-19T20:10:28.946Z,12.00
2019-03-19T20:12:55.766Z,6.75
2019-03-19T20:15:23.085Z,8.60
2019-03-19T20:17:49.921Z,8.28
2019-03-19T20:20:19.250Z,9.23
2019-03-19T20:22:47.848Z,11.50
2019-03-19T20:25:14.661Z,9.98
2019-03-19T20:27:41.477Z,7.55
2019-03-19T20:30:13.721Z,8.10
2019-03-19T20:32:40.905Z,7.53
2019-03-19T20:35:09.496Z,6.92
2019-03-19T20:37:37.572Z,7.10
2019-03-19T20:40:07.501Z,7.90
2019-03-19T20:42:34.321Z,7.50
2019-03-19T20:45:01.191Z,9.08
2019-03-19T20:47:27.981Z,7.95
2019-03-19T20:49:54.805Z,6.70
2019-03-19T20:52:21.589Z,7.33
2019-03-19T20:54:48.411Z,13.75
2019-03-19T20:57:15.233Z,11.70
2019-03-19T20:59:42.020Z,11.23
2019-03-19T21:02:08.839Z,13.10
2019-03-19T21:04:35.618Z,10.90
2019-03-19T21:07:02.449Z,8.73
2019-03-19T21:09:29.230Z,8.50
2019-03-19T21:11:56.048Z,10.88
2019-03-19T21:14:22.835Z,13.67
2019-03-19T21:16:49.652Z,12.35
2019-03-19T21:19:16.447Z,13.60
2019-03-19T21:21:43.260Z,12.43
2019-03-19T21:24:10.041Z,9.75
2019-03-19T21:26:36.875Z,10.20
2019-03-19T21:29:03.792Z,9.10
2019-03-19T21:31:30.617Z,8.93
2019-03-19T21:33:57.446Z,8.70
2019-03-19T21:36:24.220Z,8.03
2019-03-19T21:38:51.049Z,5.03
2019-03-19T21:41:17.829Z,5.57
2019-03-19T21:43:44.648Z,6.20
2019-03-19T21:46:11.468Z,9.20
2019-03-19T21:48:38.267Z,9.28
2019-03-19T21:51:05.083Z,10.38
2019-03-19T21:53:31.877Z,6.22
2019-03-19T21:55:58.737Z,5.85
2019-03-19T21:58:25.565Z,6.60
2019-03-19T22:00:52.346Z,4.75
2019-03-19T22:03:19.165Z,8.68
2019-03-19T22:05:45.940Z,11.55
2019-03-19T22:08:12.828Z,8.55
2019-03-19T22:10:39.645Z,6.70
2019-03-19T22:13:06.433Z,5.58
2019-03-19T22:15:33.249Z,5.60
2019-03-19T22:18:00.114Z,5.53
2019-03-19T22:20:26.931Z,8.88
2019-03-19T22:22:53.718Z,6.53
2019-03-19T22:25:20.536Z,7.60
2019-03-19T22:27:47.321Z,5.87
2019-03-19T22:30:18.362Z,7.47
2019-03-19T22:32:45.176Z,5.90
2019-03-19T22:35:12.193Z,6.60
2019-03-19T22:37:38.974Z,7.97
2019-03-19T22:40:11.304Z,11.00
2019-03-19T22:42:38.088Z,6.60
2019-03-19T22:45:08.104Z,9.90
2019-03-19T22:47:34.889Z,6.00
2019-03-19T22:50:01.708Z,7.28
2019-03-19T22:52:28.509Z,7.20
2019-03-19T22:54:55.330Z,7.22
2019-03-19T22:57:23.099Z,7.80
2019-03-19T22:59:53.808Z,8.20
2019-03-19T23:02:21.474Z,7.83
2019-03-19T23:04:49.029Z,5.03
2019-03-19T23:07:16.593Z,6.78
2019-03-19T23:09:44.092Z,6.53
2019-03-19T23:12:12.534Z,4.80
2019-03-19T23:14:40.387Z,7.08
2019-03-19T23:17:07.816Z,6.35
2019-03-19T23:19:35.369Z,8.18
2019-03-19T23:22:05.126Z,9.08
2019-03-19T23:24:33.811Z,5.75
2019-03-19T23:27:04.067Z,5.53
2019-03-19T23:29:33.283Z,9.50
2019-03-19T23:32:00.945Z,7.42
2019-03-19T23:34:38.198Z,7.20
2019-03-19T23:37:00.512Z,8.08
2019-03-19T23:39:28.478Z,8.18
2019-03-19T23:41:56.048Z,9.45
2019-03-19T23:44:23.948Z,10.00
2019-03-19T23:46:57.594Z,7.47
2019-03-19T23:49:24.790Z,5.55
2019-03-19T23:51:54.040Z,6.55
2019-03-19T23:54:21.714Z,6.60
2019-03-19T23:56:49.580Z,6.47
2019-03-19T23:59:18.701Z,7.80
